sensor_id;sensor_type;location;lat;lon;timestamp;temperature;humidity
23721;DHT22;42950;52.134;5.578;2023-12-04T00:00:33;1.70;99.90
23721;DHT22;42950;52.134;5.578;2023-12-04T00:02:59;1.80;99.90
23721;DHT22;42950;52.134;5.578;2023-12-04T00:05:24;1.80;99.90
23721;DHT22;42950;52.134;5.578;2023-12-04T00:07:50;1.80;99.90
23721;DHT22;42950;52.134;5.578;2023-12-04T00:10:15;1.90;99.90
23721;DHT22;42950;52.134;5.578;2023-12-04T00:12:41;1.90;99.90
23721;DHT22;42950;52.134;5.578;2023-12-04T00:15:07;1.90;99.90
23721;DHT22;42950;52.134;5.578;2023-12-04T00:17:33;1.90;99.90
23721;DHT22;42950;52.134;5.578;2023-12-04T00:19:58;1.90;99.90
23721;DHT22;42950;52.134;5.578;2023-12-04T00:22:24;1.90;99.90
23721;DHT22;42950;52.134;5.578;2023-12-04T00:24:50;1.80;99.90
23721;DHT22;42950;52.134;5.578;2023-12-04T00:27:15;1.80;99.90
23721;DHT22;42950;52.134;5.578;2023-12-04T00:29:41;1.90;99.90
23721;DHT22;42950;52.134;5.578;2023-12-04T00:32:07;1.90;99.90
23721;DHT22;42950;52.134;5.578;2023-12-04T00:34:33;1.80;99.90
23721;DHT22;42950;52.134;5.578;2023-12-04T00:36:58;1.80;99.90
23721;DHT22;42950;52.134;5.578;2023-12-04T00:39:24;1.80;99.90
23721;DHT22;42950;52.134;5.578;2023-12-04T00:41:49;1.80;99.90
23721;DHT22;42950;52.134;5.578;2023-12-04T00:44:15;1.80;99.90
23721;DHT22;42950;52.134;5.578;2023-12-04T00:46:40;1.80;99.90
23721;DHT22;42950;52.134;5.578;2023-12-04T00:49:06;1.80;99.90
23721;DHT22;42950;52.134;5.578;2023-12-04T00:51:37;1.80;99.90
23721;DHT22;42950;52.134;5.578;2023-12-04T00:54:03;1.80;99.90
23721;DHT22;42950;52.134;5.578;2023-12-04T00:56:29;1.80;99.90
23721;DHT22;42950;52.134;5.578;2023-12-04T00:58:54;1.80;99.90
23721;DHT22;42950;52.134;5.578;2023-12-04T01:01:20;1.80;99.90
23721;DHT22;42950;52.134;5.578;2023-12-04T01:03:45;1.80;99.90
23721;DHT22;42950;52.134;5.578;2023-12-04T01:06:23;1.80;99.90
23721;DHT22;42950;52.134;5.578;2023-12-04T01:08:49;1.80;99.90
23721;DHT22;42950;52.134;5.578;2023-12-04T01:11:16;1.80;99.90
23721;DHT22;42950;52.134;5.578;2023-12-04T01:13:42;1.80;99.90
23721;DHT22;42950;52.134;5.578;2023-12-04T01:16:08;1.60;99.90
23721;DHT22;42950;52.134;5.578;2023-12-04T01:18:33;2.30;99.90
23721;DHT22;42950;52.134;5.578;2023-12-04T01:20:59;1.80;99.90
23721;DHT22;42950;52.134;5.578;2023-12-04T01:23:24;1.70;99.90
23721;DHT22;42950;52.134;5.578;2023-12-04T01:25:50;1.80;99.90
23721;DHT22;42950;52.134;5.578;2023-12-04T01:28:16;1.80;99.90
23721;DHT22;42950;52.134;5.578;2023-12-04T01:30:41;1.80;99.90
23721;DHT22;42950;52.134;5.578;2023-12-04T01:33:07;1.80;99.90
23721;DHT22;42950;52.134;5.578;2023-12-04T01:35:33;1.70;99.90
23721;DHT22;42950;52.134;5.578;2023-12-04T01:37:59;1.80;99.90
23721;DHT22;42950;52.134;5.578;2023-12-04T01:40:25;1.80;99.90
23721;DHT22;42950;52.134;5.578;2023-12-04T01:42:51;1.80;99.90
23721;DHT22;42950;52.134;5.578;2023-12-04T01:45:17;1.80;99.90
23721;DHT22;42950;52.134;5.578;2023-12-04T01:47:42;1.80;99.90
23721;DHT22;42950;52.134;5.578;2023-12-04T01:50:09;1.90;99.90
23721;DHT22;42950;52.134;5.578;2023-12-04T01:52:35;1.80;99.90
23721;DHT22;42950;52.134;5.578;2023-12-04T01:55:02;1.80;99.90
23721;DHT22;42950;52.134;5.578;2023-12-04T01:57:28;1.80;99.90
23721;DHT22;42950;52.134;5.578;2023-12-04T01:59:53;1.80;99.90
23721;DHT22;42950;52.134;5.578;2023-12-04T02:02:19;1.70;99.90
23721;DHT22;42950;52.134;5.578;2023-12-04T02:04:45;1.70;99.90
23721;DHT22;42950;52.134;5.578;2023-12-04T02:07:11;1.70;99.90
23721;DHT22;42950;52.134;5.578;2023-12-04T02:09:37;1.80;99.90
23721;DHT22;42950;52.134;5.578;2023-12-04T02:12:03;1.80;99.90
23721;DHT22;42950;52.134;5.578;2023-12-04T02:14:29;1.80;99.90
23721;DHT22;42950;52.134;5.578;2023-12-04T02:16:56;1.80;99.90
23721;DHT22;42950;52.134;5.578;2023-12-04T02:19:23;1.80;99.90
23721;DHT22;42950;52.134;5.578;2023-12-04T02:21:49;1.80;99.90
23721;DHT22;42950;52.134;5.578;2023-12-04T02:24:14;1.80;99.90
23721;DHT22;42950;52.134;5.578;2023-12-04T02:26:55;1.80;99.90
23721;DHT22;42950;52.134;5.578;2023-12-04T02:29:39;1.80;99.90
23721;DHT22;42950;52.134;5.578;2023-12-04T02:32:09;1.80;99.90
23721;DHT22;42950;52.134;5.578;2023-12-04T02:34:38;1.80;99.90
23721;DHT22;42950;52.134;5.578;2023-12-04T02:37:06;1.80;99.90
23721;DHT22;42950;52.134;5.578;2023-12-04T02:39:32;1.80;99.90
23721;DHT22;42950;52.134;5.578;2023-12-04T02:41:57;1.80;99.90
23721;DHT22;42950;52.134;5.578;2023-12-04T02:44:23;1.80;99.90
23721;DHT22;42950;52.134;5.578;2023-12-04T02:46:48;2.20;99.90
23721;DHT22;42950;52.134;5.578;2023-12-04T02:49:14;1.80;99.90
23721;DHT22;42950;52.134;5.578;2023-12-04T02:51:43;1.90;99.90
23721;DHT22;42950;52.134;5.578;2023-12-04T02:54:08;2.20;99.90
23721;DHT22;42950;52.134;5.578;2023-12-04T02:56:34;1.90;99.90
23721;DHT22;42950;52.134;5.578;2023-12-04T02:58:59;1.90;99.90
23721;DHT22;42950;52.134;5.578;2023-12-04T03:01:25;1.90;99.90
23721;DHT22;42950;52.134;5.578;2023-12-04T03:03:50;1.90;99.90
23721;DHT22;42950;52.134;5.578;2023-12-04T03:06:16;1.90;99.90
23721;DHT22;42950;52.134;5.578;2023-12-04T03:08:42;2.00;99.90
23721;DHT22;42950;52.134;5.578;2023-12-04T03:11:08;1.90;99.90
23721;DHT22;42950;52.134;5.578;2023-12-04T03:13:34;1.90;99.90
23721;DHT22;42950;52.134;5.578;2023-12-04T03:15:59;2.00;99.90
23721;DHT22;42950;52.134;5.578;2023-12-04T03:18:26;2.00;99.90
23721;DHT22;42950;52.134;5.578;2023-12-04T03:20:51;1.90;99.90
23721;DHT22;42950;52.134;5.578;2023-12-04T03:23:17;2.00;99.90
23721;DHT22;42950;52.134;5.578;2023-12-04T03:25:43;1.90;99.90
23721;DHT22;42950;52.134;5.578;2023-12-04T03:28:08;1.90;99.90
23721;DHT22;42950;52.134;5.578;2023-12-04T03:30:34;1.80;99.90
23721;DHT22;42950;52.134;5.578;2023-12-04T03:32:59;1.90;99.90
23721;DHT22;42950;52.134;5.578;2023-12-04T03:35:25;1.90;99.90
23721;DHT22;42950;52.134;5.578;2023-12-04T03:37:50;1.90;99.90
23721;DHT22;42950;52.134;5.578;2023-12-04T03:40:16;1.80;99.90
23721;DHT22;42950;52.134;5.578;2023-12-04T03:42:42;1.90;99.90
23721;DHT22;42950;52.134;5.578;2023-12-04T03:45:07;1.90;99.90
23721;DHT22;42950;52.134;5.578;2023-12-04T03:47:33;1.90;99.90
23721;DHT22;42950;52.134;5.578;2023-12-04T03:49:59;1.90;99.90
23721;DHT22;42950;52.134;5.578;2023-12-04T03:52:24;1.80;99.90
23721;DHT22;42950;52.134;5.578;2023-12-04T03:54:50;1.90;99.90
23721;DHT22;42950;52.134;5.578;2023-12-04T03:57:15;1.90;99.90
23721;DHT22;42950;52.134;5.578;2023-12-04T03:59:41;1.90;99.90
23721;DHT22;42950;52.134;5.578;2023-12-04T04:02:06;1.90;99.90
23721;DHT22;42950;52.134;5.578;2023-12-04T04:04:32;1.90;99.90
23721;DHT22;42950;52.134;5.578;2023-12-04T04:06:57;1.90;99.90
23721;DHT22;42950;52.134;5.578;2023-12-04T04:09:23;1.90;99.90
23721;DHT22;42950;52.134;5.578;2023-12-04T04:11:48;1.90;99.90
23721;DHT22;42950;52.134;5.578;2023-12-04T04:14:14;1.80;99.90
23721;DHT22;42950;52.134;5.578;2023-12-04T04:16:40;1.90;99.90
23721;DHT22;42950;52.134;5.578;2023-12-04T04:19:07;1.80;99.90
23721;DHT22;42950;52.134;5.578;2023-12-04T04:21:33;1.90;99.90
23721;DHT22;42950;52.134;5.578;2023-12-04T04:23:59;1.80;99.90
23721;DHT22;42950;52.134;5.578;2023-12-04T04:26:25;1.80;99.90
23721;DHT22;42950;52.134;5.578;2023-12-04T04:28:50;1.80;99.90
23721;DHT22;42950;52.134;5.578;2023-12-04T04:31:16;1.90;99.90
23721;DHT22;42950;52.134;5.578;2023-12-04T04:33:42;1.80;99.90
23721;DHT22;42950;52.134;5.578;2023-12-04T04:36:09;1.80;99.90
23721;DHT22;42950;52.134;5.578;2023-12-04T04:38:35;1.80;99.90
23721;DHT22;42950;52.134;5.578;2023-12-04T04:41:00;1.70;99.90
23721;DHT22;42950;52.134;5.578;2023-12-04T04:43:26;1.70;99.90
23721;DHT22;42950;52.134;5.578;2023-12-04T04:45:51;1.80;99.90
23721;DHT22;42950;52.134;5.578;2023-12-04T04:48:17;1.80;99.90
23721;DHT22;42950;52.134;5.578;2023-12-04T04:50:43;1.80;99.90
23721;DHT22;42950;52.134;5.578;2023-12-04T04:53:08;1.80;99.90
23721;DHT22;42950;52.134;5.578;2023-12-04T04:55:34;1.80;99.90
23721;DHT22;42950;52.134;5.578;2023-12-04T04:57:59;1.80;99.90
23721;DHT22;42950;52.134;5.578;2023-12-04T05:00:25;1.80;99.90
23721;DHT22;42950;52.134;5.578;2023-12-04T05:02:50;1.80;99.90
23721;DHT22;42950;52.134;5.578;2023-12-04T05:05:16;1.80;99.90
23721;DHT22;42950;52.134;5.578;2023-12-04T05:07:42;1.80;99.90
23721;DHT22;42950;52.134;5.578;2023-12-04T05:10:07;1.80;99.90
23721;DHT22;42950;52.134;5.578;2023-12-04T05:12:33;1.80;99.90
23721;DHT22;42950;52.134;5.578;2023-12-04T05:14:58;1.80;99.90
23721;DHT22;42950;52.134;5.578;2023-12-04T05:17:24;1.80;99.90
23721;DHT22;42950;52.134;5.578;2023-12-04T05:19:50;1.80;99.90
23721;DHT22;42950;52.134;5.578;2023-12-04T05:22:15;1.80;99.90
23721;DHT22;42950;52.134;5.578;2023-12-04T05:24:41;1.80;99.90
23721;DHT22;42950;52.134;5.578;2023-12-04T05:27:06;1.70;99.90
23721;DHT22;42950;52.134;5.578;2023-12-04T05:29:32;1.70;99.90
23721;DHT22;42950;52.134;5.578;2023-12-04T05:31:57;1.70;99.90
23721;DHT22;42950;52.134;5.578;2023-12-04T05:34:23;1.70;99.90
23721;DHT22;42950;52.134;5.578;2023-12-04T05:36:49;1.70;99.90
23721;DHT22;42950;52.134;5.578;2023-12-04T05:39:15;1.70;99.90
23721;DHT22;42950;52.134;5.578;2023-12-04T05:41:40;1.70;99.90
23721;DHT22;42950;52.134;5.578;2023-12-04T05:44:06;1.70;99.90
23721;DHT22;42950;52.134;5.578;2023-12-04T05:46:31;1.70;99.90
23721;DHT22;42950;52.134;5.578;2023-12-04T05:48:57;1.70;99.90
23721;DHT22;42950;52.134;5.578;2023-12-04T05:51:23;1.80;99.90
23721;DHT22;42950;52.134;5.578;2023-12-04T05:53:49;1.70;99.90
23721;DHT22;42950;52.134;5.578;2023-12-04T05:56:14;1.70;99.90
23721;DHT22;42950;52.134;5.578;2023-12-04T05:58:40;1.70;99.90
23721;DHT22;42950;52.134;5.578;2023-12-04T06:01:06;1.80;99.90
23721;DHT22;42950;52.134;5.578;2023-12-04T06:03:34;1.80;99.90
23721;DHT22;42950;52.134;5.578;2023-12-04T06:06:00;1.80;99.90
23721;DHT22;42950;52.134;5.578;2023-12-04T06:08:25;1.80;99.90
23721;DHT22;42950;52.134;5.578;2023-12-04T06:10:51;1.70;99.90
23721;DHT22;42950;52.134;5.578;2023-12-04T06:13:17;1.70;99.90
23721;DHT22;42950;52.134;5.578;2023-12-04T06:15:42;1.70;99.90
23721;DHT22;42950;52.134;5.578;2023-12-04T06:18:08;2.00;99.90
23721;DHT22;42950;52.134;5.578;2023-12-04T06:20:34;1.80;99.90
23721;DHT22;42950;52.134;5.578;2023-12-04T06:22:59;1.80;99.90
23721;DHT22;42950;52.134;5.578;2023-12-04T06:25:25;1.80;99.90
23721;DHT22;42950;52.134;5.578;2023-12-04T06:27:51;1.90;99.90
23721;DHT22;42950;52.134;5.578;2023-12-04T06:30:17;2.20;99.90
23721;DHT22;42950;52.134;5.578;2023-12-04T06:32:43;1.80;99.90
23721;DHT22;42950;52.134;5.578;2023-12-04T06:35:10;1.80;99.90
23721;DHT22;42950;52.134;5.578;2023-12-04T06:37:38;1.80;99.90
23721;DHT22;42950;52.134;5.578;2023-12-04T06:40:05;1.70;99.90
23721;DHT22;42950;52.134;5.578;2023-12-04T06:42:34;1.70;99.90
23721;DHT22;42950;52.134;5.578;2023-12-04T06:45:00;1.80;99.90
23721;DHT22;42950;52.134;5.578;2023-12-04T06:47:26;2.00;99.90
23721;DHT22;42950;52.134;5.578;2023-12-04T06:49:53;1.80;99.90
23721;DHT22;42950;52.134;5.578;2023-12-04T06:52:22;1.80;99.90
23721;DHT22;42950;52.134;5.578;2023-12-04T06:54:47;1.70;99.90
23721;DHT22;42950;52.134;5.578;2023-12-04T06:57:13;1.80;99.90
23721;DHT22;42950;52.134;5.578;2023-12-04T06:59:42;1.70;99.90
23721;DHT22;42950;52.134;5.578;2023-12-04T07:02:08;1.70;99.90
23721;DHT22;42950;52.134;5.578;2023-12-04T07:04:34;1.80;99.90
23721;DHT22;42950;52.134;5.578;2023-12-04T07:06:59;1.80;99.90
23721;DHT22;42950;52.134;5.578;2023-12-04T07:09:31;1.80;99.90
23721;DHT22;42950;52.134;5.578;2023-12-04T07:11:57;1.80;99.90
23721;DHT22;42950;52.134;5.578;2023-12-04T07:14:23;1.80;99.90
23721;DHT22;42950;52.134;5.578;2023-12-04T07:16:48;1.80;99.90
23721;DHT22;42950;52.134;5.578;2023-12-04T07:19:14;1.80;99.90
23721;DHT22;42950;52.134;5.578;2023-12-04T07:21:41;1.80;99.90
23721;DHT22;42950;52.134;5.578;2023-12-04T07:24:08;1.80;99.90
23721;DHT22;42950;52.134;5.578;2023-12-04T07:26:34;1.80;99.90
23721;DHT22;42950;52.134;5.578;2023-12-04T07:29:01;1.80;99.90
23721;DHT22;42950;52.134;5.578;2023-12-04T07:31:27;1.80;99.90
23721;DHT22;42950;52.134;5.578;2023-12-04T07:33:56;1.80;99.90
23721;DHT22;42950;52.134;5.578;2023-12-04T07:36:22;1.90;99.90
23721;DHT22;42950;52.134;5.578;2023-12-04T07:38:47;1.80;99.90
23721;DHT22;42950;52.134;5.578;2023-12-04T07:41:14;1.80;99.90
23721;DHT22;42950;52.134;5.578;2023-12-04T07:43:40;1.80;99.90
23721;DHT22;42950;52.134;5.578;2023-12-04T07:46:06;1.80;99.90
23721;DHT22;42950;52.134;5.578;2023-12-04T07:48:31;1.80;99.90
23721;DHT22;42950;52.134;5.578;2023-12-04T07:50:57;1.80;99.90
23721;DHT22;42950;52.134;5.578;2023-12-04T07:53:22;1.80;99.90
23721;DHT22;42950;52.134;5.578;2023-12-04T07:55:49;1.80;99.90
23721;DHT22;42950;52.134;5.578;2023-12-04T07:58:17;1.80;99.90
23721;DHT22;42950;52.134;5.578;2023-12-04T08:00:43;1.90;99.90
23721;DHT22;42950;52.134;5.578;2023-12-04T08:03:09;1.80;99.90
23721;DHT22;42950;52.134;5.578;2023-12-04T08:05:34;1.90;99.90
23721;DHT22;42950;52.134;5.578;2023-12-04T08:08:00;1.90;99.90
23721;DHT22;42950;52.134;5.578;2023-12-04T08:10:26;1.90;99.90
23721;DHT22;42950;52.134;5.578;2023-12-04T08:12:51;1.90;99.90
23721;DHT22;42950;52.134;5.578;2023-12-04T08:15:17;1.90;99.90
23721;DHT22;42950;52.134;5.578;2023-12-04T08:17:42;1.90;99.90
23721;DHT22;42950;52.134;5.578;2023-12-04T08:20:08;1.90;99.90
23721;DHT22;42950;52.134;5.578;2023-12-04T08:22:39;1.90;99.90
23721;DHT22;42950;52.134;5.578;2023-12-04T08:25:05;1.90;99.90
23721;DHT22;42950;52.134;5.578;2023-12-04T08:27:32;1.90;99.90
23721;DHT22;42950;52.134;5.578;2023-12-04T08:29:58;1.90;99.90
23721;DHT22;42950;52.134;5.578;2023-12-04T08:32:23;1.90;99.90
23721;DHT22;42950;52.134;5.578;2023-12-04T08:34:51;1.90;99.90
23721;DHT22;42950;52.134;5.578;2023-12-04T08:37:19;1.90;99.90
23721;DHT22;42950;52.134;5.578;2023-12-04T08:39:45;2.00;99.90
23721;DHT22;42950;52.134;5.578;2023-12-04T08:42:11;2.00;99.90
23721;DHT22;42950;52.134;5.578;2023-12-04T08:44:37;2.00;99.90
23721;DHT22;42950;52.134;5.578;2023-12-04T08:47:04;2.00;99.90
23721;DHT22;42950;52.134;5.578;2023-12-04T08:49:30;2.10;99.90
23721;DHT22;42950;52.134;5.578;2023-12-04T08:51:55;2.10;99.90
23721;DHT22;42950;52.134;5.578;2023-12-04T08:54:21;2.20;99.90
23721;DHT22;42950;52.134;5.578;2023-12-04T08:56:47;2.20;99.90
23721;DHT22;42950;52.134;5.578;2023-12-04T08:59:12;2.20;99.90
23721;DHT22;42950;52.134;5.578;2023-12-04T09:01:38;2.20;99.90
23721;DHT22;42950;52.134;5.578;2023-12-04T09:04:04;2.20;99.90
23721;DHT22;42950;52.134;5.578;2023-12-04T09:06:30;2.30;99.90
23721;DHT22;42950;52.134;5.578;2023-12-04T09:08:55;2.30;99.90
23721;DHT22;42950;52.134;5.578;2023-12-04T09:11:21;2.30;99.90
23721;DHT22;42950;52.134;5.578;2023-12-04T09:13:46;2.30;99.90
23721;DHT22;42950;52.134;5.578;2023-12-04T09:16:12;2.30;99.90
23721;DHT22;42950;52.134;5.578;2023-12-04T09:18:39;2.30;99.90
23721;DHT22;42950;52.134;5.578;2023-12-04T09:21:04;2.40;99.90
23721;DHT22;42950;52.134;5.578;2023-12-04T09:23:30;2.40;99.90
23721;DHT22;42950;52.134;5.578;2023-12-04T09:25:56;2.40;99.90
23721;DHT22;42950;52.134;5.578;2023-12-04T09:28:21;2.50;99.90
23721;DHT22;42950;52.134;5.578;2023-12-04T09:30:47;2.50;99.90
23721;DHT22;42950;52.134;5.578;2023-12-04T09:33:13;2.60;99.90
23721;DHT22;42950;52.134;5.578;2023-12-04T09:35:38;2.60;99.90
23721;DHT22;42950;52.134;5.578;2023-12-04T09:38:04;2.60;99.90
23721;DHT22;42950;52.134;5.578;2023-12-04T09:40:30;2.60;99.90
23721;DHT22;42950;52.134;5.578;2023-12-04T09:42:55;2.70;99.90
23721;DHT22;42950;52.134;5.578;2023-12-04T09:45:23;2.80;99.90
23721;DHT22;42950;52.134;5.578;2023-12-04T09:47:50;2.70;99.90
23721;DHT22;42950;52.134;5.578;2023-12-04T09:50:16;2.80;99.90
23721;DHT22;42950;52.134;5.578;2023-12-04T09:52:48;2.80;99.90
23721;DHT22;42950;52.134;5.578;2023-12-04T09:55:15;2.90;99.90
23721;DHT22;42950;52.134;5.578;2023-12-04T09:57:42;2.80;99.90
23721;DHT22;42950;52.134;5.578;2023-12-04T10:00:10;2.90;99.90
23721;DHT22;42950;52.134;5.578;2023-12-04T10:02:37;2.90;99.90
23721;DHT22;42950;52.134;5.578;2023-12-04T10:05:02;2.90;99.90
23721;DHT22;42950;52.134;5.578;2023-12-04T10:07:31;2.90;99.90
23721;DHT22;42950;52.134;5.578;2023-12-04T10:09:56;3.00;99.90
23721;DHT22;42950;52.134;5.578;2023-12-04T10:12:22;3.00;99.90
23721;DHT22;42950;52.134;5.578;2023-12-04T10:15:06;3.10;99.90
23721;DHT22;42950;52.134;5.578;2023-12-04T10:17:37;3.10;99.90
23721;DHT22;42950;52.134;5.578;2023-12-04T10:20:08;3.10;99.90
23721;DHT22;42950;52.134;5.578;2023-12-04T10:22:42;3.20;99.90
23721;DHT22;42950;52.134;5.578;2023-12-04T10:25:17;3.20;99.90
23721;DHT22;42950;52.134;5.578;2023-12-04T10:27:44;3.20;99.90
23721;DHT22;42950;52.134;5.578;2023-12-04T10:30:10;3.20;99.90
23721;DHT22;42950;52.134;5.578;2023-12-04T10:32:47;3.30;99.90
23721;DHT22;42950;52.134;5.578;2023-12-04T10:35:12;3.30;99.90
23721;DHT22;42950;52.134;5.578;2023-12-04T10:37:38;3.30;99.90
23721;DHT22;42950;52.134;5.578;2023-12-04T10:40:05;3.30;99.90
23721;DHT22;42950;52.134;5.578;2023-12-04T10:42:34;3.40;99.90
23721;DHT22;42950;52.134;5.578;2023-12-04T10:45:00;3.40;99.90
23721;DHT22;42950;52.134;5.578;2023-12-04T10:47:28;3.40;99.90
23721;DHT22;42950;52.134;5.578;2023-12-04T10:49:54;3.40;99.90
23721;DHT22;42950;52.134;5.578;2023-12-04T10:52:20;3.40;99.90
23721;DHT22;42950;52.134;5.578;2023-12-04T10:54:47;3.50;99.90
23721;DHT22;42950;52.134;5.578;2023-12-04T10:57:25;3.40;99.90
23721;DHT22;42950;52.134;5.578;2023-12-04T10:59:58;3.40;99.90
23721;DHT22;42950;52.134;5.578;2023-12-04T11:02:29;3.40;99.90
23721;DHT22;42950;52.134;5.578;2023-12-04T11:05:02;3.40;99.90
23721;DHT22;42950;52.134;5.578;2023-12-04T11:07:29;3.50;99.90
23721;DHT22;42950;52.134;5.578;2023-12-04T11:09:57;3.40;99.90
23721;DHT22;42950;52.134;5.578;2023-12-04T11:12:25;3.40;99.90
23721;DHT22;42950;52.134;5.578;2023-12-04T11:14:57;3.40;99.90
23721;DHT22;42950;52.134;5.578;2023-12-04T11:17:24;3.40;99.90
23721;DHT22;42950;52.134;5.578;2023-12-04T11:20:15;3.40;99.90
23721;DHT22;42950;52.134;5.578;2023-12-04T11:22:43;3.50;99.90
23721;DHT22;42950;52.134;5.578;2023-12-04T11:25:12;3.40;99.90
23721;DHT22;42950;52.134;5.578;2023-12-04T11:27:39;3.40;99.90
23721;DHT22;42950;52.134;5.578;2023-12-04T11:30:06;3.50;99.90
23721;DHT22;42950;52.134;5.578;2023-12-04T11:32:48;3.50;99.90
23721;DHT22;42950;52.134;5.578;2023-12-04T11:35:18;3.40;99.90
23721;DHT22;42950;52.134;5.578;2023-12-04T11:37:44;3.40;99.90
23721;DHT22;42950;52.134;5.578;2023-12-04T11:40:12;3.50;99.90
23721;DHT22;42950;52.134;5.578;2023-12-04T11:42:39;3.40;99.90
23721;DHT22;42950;52.134;5.578;2023-12-04T11:45:06;3.40;99.90
23721;DHT22;42950;52.134;5.578;2023-12-04T11:47:49;3.30;99.90
23721;DHT22;42950;52.134;5.578;2023-12-04T11:50:15;3.40;99.90
23721;DHT22;42950;52.134;5.578;2023-12-04T11:52:41;3.40;99.90
23721;DHT22;42950;52.134;5.578;2023-12-04T11:55:07;3.30;99.90
23721;DHT22;42950;52.134;5.578;2023-12-04T11:57:36;3.40;99.90
23721;DHT22;42950;52.134;5.578;2023-12-04T12:02:41;3.30;99.90
23721;DHT22;42950;52.134;5.578;2023-12-04T12:05:11;3.30;99.90
23721;DHT22;42950;52.134;5.578;2023-12-04T12:07:37;3.30;99.90
23721;DHT22;42950;52.134;5.578;2023-12-04T12:10:03;3.30;99.90
23721;DHT22;42950;52.134;5.578;2023-12-04T12:12:30;3.30;99.90
23721;DHT22;42950;52.134;5.578;2023-12-04T12:14:57;3.30;99.90
23721;DHT22;42950;52.134;5.578;2023-12-04T12:17:23;3.20;99.90
23721;DHT22;42950;52.134;5.578;2023-12-04T12:19:49;3.20;99.90
23721;DHT22;42950;52.134;5.578;2023-12-04T12:22:14;3.20;99.90
23721;DHT22;42950;52.134;5.578;2023-12-04T12:24:40;3.30;99.90
23721;DHT22;42950;52.134;5.578;2023-12-04T12:27:05;3.20;99.90
23721;DHT22;42950;52.134;5.578;2023-12-04T12:29:31;3.20;99.90
23721;DHT22;42950;52.134;5.578;2023-12-04T12:31:56;3.30;99.90
23721;DHT22;42950;52.134;5.578;2023-12-04T12:34:22;3.30;99.90
23721;DHT22;42950;52.134;5.578;2023-12-04T12:36:48;3.30;99.90
23721;DHT22;42950;52.134;5.578;2023-12-04T12:39:13;3.40;99.90
23721;DHT22;42950;52.134;5.578;2023-12-04T12:41:47;3.30;99.90
23721;DHT22;42950;52.134;5.578;2023-12-04T12:44:13;3.30;99.90
23721;DHT22;42950;52.134;5.578;2023-12-04T12:46:40;3.40;99.90
23721;DHT22;42950;52.134;5.578;2023-12-04T12:49:06;3.30;99.90
23721;DHT22;42950;52.134;5.578;2023-12-04T12:51:31;3.40;99.90
23721;DHT22;42950;52.134;5.578;2023-12-04T12:53:57;3.30;99.90
23721;DHT22;42950;52.134;5.578;2023-12-04T12:56:25;3.40;99.90
23721;DHT22;42950;52.134;5.578;2023-12-04T12:58:52;3.40;99.90
23721;DHT22;42950;52.134;5.578;2023-12-04T13:01:22;3.40;99.90
23721;DHT22;42950;52.134;5.578;2023-12-04T13:03:48;3.40;99.90
23721;DHT22;42950;52.134;5.578;2023-12-04T13:06:13;3.50;99.90
23721;DHT22;42950;52.134;5.578;2023-12-04T13:08:39;3.50;99.90
23721;DHT22;42950;52.134;5.578;2023-12-04T13:11:05;3.60;99.90
23721;DHT22;42950;52.134;5.578;2023-12-04T13:13:31;3.50;99.90
23721;DHT22;42950;52.134;5.578;2023-12-04T13:15:57;3.50;99.90
23721;DHT22;42950;52.134;5.578;2023-12-04T13:18:23;3.50;99.90
23721;DHT22;42950;52.134;5.578;2023-12-04T13:20:49;3.40;99.90
23721;DHT22;42950;52.134;5.578;2023-12-04T13:23:15;3.40;99.90
23721;DHT22;42950;52.134;5.578;2023-12-04T13:25:40;3.40;99.90
23721;DHT22;42950;52.134;5.578;2023-12-04T13:28:06;3.30;99.90
23721;DHT22;42950;52.134;5.578;2023-12-04T13:30:31;3.40;99.90
23721;DHT22;42950;52.134;5.578;2023-12-04T13:32:59;3.40;99.90
23721;DHT22;42950;52.134;5.578;2023-12-04T13:35:25;3.40;99.90
23721;DHT22;42950;52.134;5.578;2023-12-04T13:37:51;3.40;99.90
23721;DHT22;42950;52.134;5.578;2023-12-04T13:40:20;3.40;99.90
23721;DHT22;42950;52.134;5.578;2023-12-04T13:42:46;3.40;99.90
23721;DHT22;42950;52.134;5.578;2023-12-04T13:45:30;3.40;99.90
23721;DHT22;42950;52.134;5.578;2023-12-04T13:47:57;3.40;99.90
23721;DHT22;42950;52.134;5.578;2023-12-04T13:50:22;3.40;99.90
23721;DHT22;42950;52.134;5.578;2023-12-04T13:52:48;3.30;99.90
23721;DHT22;42950;52.134;5.578;2023-12-04T13:55:20;3.30;99.90
23721;DHT22;42950;52.134;5.578;2023-12-04T13:57:56;3.40;99.90
23721;DHT22;42950;52.134;5.578;2023-12-04T14:00:36;3.40;99.90
23721;DHT22;42950;52.134;5.578;2023-12-04T14:03:02;3.40;99.90
23721;DHT22;42950;52.134;5.578;2023-12-04T14:05:33;3.40;99.90
23721;DHT22;42950;52.134;5.578;2023-12-04T14:07:59;3.40;99.90
23721;DHT22;42950;52.134;5.578;2023-12-04T14:10:26;3.40;99.90
23721;DHT22;42950;52.134;5.578;2023-12-04T14:12:52;3.40;99.90
23721;DHT22;42950;52.134;5.578;2023-12-04T14:15:18;3.30;99.90
23721;DHT22;42950;52.134;5.578;2023-12-04T14:17:44;3.30;99.90
23721;DHT22;42950;52.134;5.578;2023-12-04T14:20:11;3.30;99.90
23721;DHT22;42950;52.134;5.578;2023-12-04T14:22:42;3.30;99.90
23721;DHT22;42950;52.134;5.578;2023-12-04T14:25:09;3.30;99.90
23721;DHT22;42950;52.134;5.578;2023-12-04T14:27:34;3.30;99.90
23721;DHT22;42950;52.134;5.578;2023-12-04T14:30:01;3.30;99.90
23721;DHT22;42950;52.134;5.578;2023-12-04T14:32:27;3.40;99.90
23721;DHT22;42950;52.134;5.578;2023-12-04T14:34:53;3.40;99.90
23721;DHT22;42950;52.134;5.578;2023-12-04T14:37:19;3.40;99.90
23721;DHT22;42950;52.134;5.578;2023-12-04T14:39:45;3.40;99.90
23721;DHT22;42950;52.134;5.578;2023-12-04T14:42:11;3.40;99.90
23721;DHT22;42950;52.134;5.578;2023-12-04T14:44:36;3.30;99.90
23721;DHT22;42950;52.134;5.578;2023-12-04T14:47:02;3.40;99.90
23721;DHT22;42950;52.134;5.578;2023-12-04T14:49:30;3.30;99.90
23721;DHT22;42950;52.134;5.578;2023-12-04T14:51:57;3.30;99.90
23721;DHT22;42950;52.134;5.578;2023-12-04T14:54:23;3.30;99.90
23721;DHT22;42950;52.134;5.578;2023-12-04T14:57:04;3.30;99.90
23721;DHT22;42950;52.134;5.578;2023-12-04T14:59:45;3.30;99.90
23721;DHT22;42950;52.134;5.578;2023-12-04T15:02:34;3.30;99.90
23721;DHT22;42950;52.134;5.578;2023-12-04T15:05:18;3.30;99.90
23721;DHT22;42950;52.134;5.578;2023-12-04T15:07:52;3.30;99.90
23721;DHT22;42950;52.134;5.578;2023-12-04T15:10:21;3.30;99.90
23721;DHT22;42950;52.134;5.578;2023-12-04T15:13:12;3.30;99.90
23721;DHT22;42950;52.134;5.578;2023-12-04T15:16:09;3.20;99.90
23721;DHT22;42950;52.134;5.578;2023-12-04T15:18:40;3.20;99.90
23721;DHT22;42950;52.134;5.578;2023-12-04T15:21:28;3.20;99.90
23721;DHT22;42950;52.134;5.578;2023-12-04T15:23:54;3.20;99.90
23721;DHT22;42950;52.134;5.578;2023-12-04T15:26:20;3.20;99.90
23721;DHT22;42950;52.134;5.578;2023-12-04T15:28:46;3.20;99.90
23721;DHT22;42950;52.134;5.578;2023-12-04T15:31:12;3.20;99.90
23721;DHT22;42950;52.134;5.578;2023-12-04T15:33:37;3.20;99.90
23721;DHT22;42950;52.134;5.578;2023-12-04T15:36:03;3.20;99.90
23721;DHT22;42950;52.134;5.578;2023-12-04T15:38:29;3.20;99.90
23721;DHT22;42950;52.134;5.578;2023-12-04T15:40:55;3.20;99.90
23721;DHT22;42950;52.134;5.578;2023-12-04T15:43:21;3.20;99.90
23721;DHT22;42950;52.134;5.578;2023-12-04T15:45:47;3.20;99.90